createdAt,value
2024-05-09T00:00:18.494Z,19.00
2024-05-09T00:02:55.930Z,21.47
2024-05-09T00:05:25.779Z,18.23
2024-05-09T00:07:55.723Z,21.97
2024-05-09T00:10:35.278Z,19.43
2024-05-09T00:13:11.110Z,27.63
2024-05-09T00:15:41.125Z,17.00
2024-05-09T00:18:11.190Z,22.00
2024-05-09T00:20:41.542Z,20.30
2024-05-09T00:23:12.694Z,24.63
2024-05-09T00:25:43.647Z,21.93
2024-05-09T00:28:16.671Z,20.93
2024-05-09T00:30:46.458Z,23.20
2024-05-09T00:33:16.415Z,21.43
2024-05-09T00:35:46.328Z,20.30
2024-05-09T00:38:16.271Z,23.70
2024-05-09T00:40:46.021Z,22.50
2024-05-09T00:43:18.602Z,19.30
2024-05-09T00:45:49.139Z,25.33
2024-05-09T00:48:21.534Z,23.50
2024-05-09T00:50:54.151Z,19.33
2024-05-09T00:53:24.560Z,26.00
2024-05-09T00:55:55.340Z,23.00
2024-05-09T00:58:30.398Z,22.93
2024-05-09T01:01:01.898Z,22.00
2024-05-09T01:03:31.836Z,23.17
2024-05-09T01:06:01.927Z,21.63
2024-05-09T01:08:31.716Z,19.50
2024-05-09T01:11:01.676Z,25.13
2024-05-09T01:13:34.216Z,24.67
2024-05-09T01:16:04.023Z,21.57
2024-05-09T01:18:33.874Z,21.07
2024-05-09T01:21:08.495Z,21.40
2024-05-09T01:23:44.375Z,20.47
2024-05-09T01:26:14.164Z,17.67
2024-05-09T01:28:43.983Z,21.43
2024-05-09T01:31:16.067Z,22.10
2024-05-09T01:33:46.133Z,19.97
2024-05-09T01:36:16.059Z,20.70
2024-05-09T01:38:48.448Z,19.10
2024-05-09T01:41:18.276Z,19.37
2024-05-09T01:43:48.371Z,21.40
2024-05-09T01:46:19.412Z,17.93
2024-05-09T01:48:49.540Z,18.03
2024-05-09T01:51:19.393Z,15.67
2024-05-09T01:53:51.806Z,21.30
2024-05-09T01:56:24.535Z,22.83
2024-05-09T01:58:54.313Z,17.17
2024-05-09T02:01:26.912Z,21.00
2024-05-09T02:03:56.858Z,18.67
2024-05-09T02:06:26.746Z,15.23
2024-05-09T02:08:59.136Z,19.47
2024-05-09T02:11:28.981Z,19.80
2024-05-09T02:13:58.764Z,19.20
2024-05-09T02:16:28.429Z,17.97
2024-05-09T02:18:58.138Z,22.10
2024-05-09T02:21:28.956Z,18.77
2024-05-09T02:24:01.363Z,21.43
2024-05-09T02:26:31.262Z,23.90
2024-05-09T02:29:01.665Z,19.63
2024-05-09T02:31:31.431Z,21.20
2024-05-09T02:34:01.694Z,22.57
2024-05-09T02:36:31.647Z,21.47
2024-05-09T02:39:01.425Z,18.20
2024-05-09T02:41:31.224Z,18.27
2024-05-09T02:43:58.588Z,19.43
2024-05-09T02:46:28.315Z,20.33
2024-05-09T02:48:55.473Z,24.10
2024-05-09T02:51:25.304Z,17.87
2024-05-09T02:53:52.401Z,23.90
2024-05-09T02:56:24.919Z,25.80
2024-05-09T02:58:52.012Z,19.17
2024-05-09T03:01:21.926Z,20.17
2024-05-09T03:03:53.323Z,22.03
2024-05-09T03:06:23.142Z,23.37
2024-05-09T03:08:50.356Z,26.93
2024-05-09T03:11:31.932Z,19.73
2024-05-09T03:13:59.100Z,19.77
2024-05-09T03:16:28.875Z,19.33
2024-05-09T03:18:56.218Z,23.43
2024-05-09T03:21:26.131Z,23.40
2024-05-09T03:23:53.323Z,26.93
2024-05-09T03:26:23.158Z,23.40
2024-05-09T03:28:52.977Z,21.60
2024-05-09T03:31:22.784Z,23.90
2024-05-09T03:33:50.072Z,18.27
2024-05-09T03:36:19.917Z,20.97
2024-05-09T03:38:50.936Z,20.07
2024-05-09T03:41:22.666Z,21.80
2024-05-09T03:43:55.267Z,18.90
2024-05-09T03:46:22.749Z,21.97
2024-05-09T03:48:52.653Z,18.43
2024-05-09T03:51:19.900Z,19.17
2024-05-09T03:53:49.643Z,24.80
2024-05-09T03:56:19.977Z,17.33
2024-05-09T03:58:51.052Z,22.50
2024-05-09T04:01:25.560Z,21.63
2024-05-09T04:03:55.724Z,20.57
2024-05-09T04:06:26.722Z,22.77
2024-05-09T04:08:56.625Z,18.40
2024-05-09T04:11:23.859Z,19.13
2024-05-09T04:13:53.946Z,21.33
2024-05-09T04:16:23.918Z,18.53
2024-05-09T04:18:53.901Z,21.23
2024-05-09T04:21:24.431Z,20.23
2024-05-09T04:23:54.642Z,20.03
2024-05-09T04:26:34.613Z,27.57
2024-05-09T04:29:04.886Z,18.30
2024-05-09T04:31:41.666Z,19.07
2024-05-09T04:34:09.448Z,19.77
2024-05-09T04:36:42.466Z,21.40
2024-05-09T04:39:11.090Z,17.17
2024-05-09T04:41:41.411Z,20.50
2024-05-09T04:44:08.711Z,18.63
2024-05-09T04:46:45.625Z,20.97
2024-05-09T04:49:13.026Z,21.60
2024-05-09T04:51:44.118Z,19.73
2024-05-09T04:54:22.131Z,20.87
2024-05-09T04:56:59.820Z,18.10
2024-05-09T04:59:27.053Z,30.07
2024-05-09T05:02:02.573Z,34.37
2024-05-09T05:04:35.546Z,17.60
2024-05-09T05:07:11.655Z,17.10
2024-05-09T05:09:38.852Z,21.00
2024-05-09T05:12:39.555Z,16.87
2024-05-09T05:15:10.245Z,20.47
2024-05-09T05:17:42.900Z,23.50
2024-05-09T05:20:15.063Z,25.20
2024-05-09T05:22:45.536Z,21.73
2024-05-09T05:25:20.342Z,19.90
2024-05-09T05:27:53.991Z,14.63
2024-05-09T05:30:25.453Z,20.27
2024-05-09T05:33:07.710Z,22.80
2024-05-09T05:35:37.551Z,16.10
2024-05-09T05:38:11.319Z,20.67
2024-05-09T05:40:41.056Z,17.23
2024-05-09T05:43:17.577Z,13.17
2024-05-09T05:45:47.754Z,18.20
2024-05-09T05:48:43.306Z,19.00
2024-05-09T05:51:10.621Z,17.30
2024-05-09T05:53:49.596Z,20.07
2024-05-09T05:56:38.707Z,15.70
2024-05-09T05:59:15.143Z,18.80
2024-05-09T06:01:55.666Z,16.77
2024-05-09T06:04:28.658Z,20.77
2024-05-09T06:07:26.700Z,20.53
2024-05-09T06:13:12.094Z,20.07
2024-05-09T06:16:09.234Z,18.40
2024-05-09T06:18:43.284Z,20.07
2024-05-09T06:21:14.304Z,18.17
2024-05-09T06:23:48.804Z,18.50
2024-05-09T06:26:16.623Z,17.70
2024-05-09T06:28:49.998Z,21.30
2024-05-09T06:31:40.575Z,22.17
2024-05-09T06:34:10.703Z,16.37
2024-05-09T06:36:45.330Z,17.50
2024-05-09T06:39:18.584Z,21.03
2024-05-09T06:41:48.751Z,15.53
2024-05-09T06:44:41.713Z,18.57
2024-05-09T06:47:42.231Z,15.13
2024-05-09T06:50:23.302Z,16.30
2024-05-09T06:53:03.074Z,15.60
2024-05-09T06:55:35.820Z,14.00
2024-05-09T06:58:12.517Z,19.90
2024-05-09T07:00:50.912Z,20.83
2024-05-09T07:03:22.848Z,15.40
2024-05-09T07:05:51.920Z,19.93
2024-05-09T07:08:37.004Z,17.47
2024-05-09T07:11:11.140Z,15.23
2024-05-09T07:13:54.286Z,17.43
2024-05-09T07:16:21.459Z,21.70
2024-05-09T07:18:56.201Z,17.17
2024-05-09T07:21:25.728Z,15.43
2024-05-09T07:24:01.499Z,16.23
2024-05-09T07:26:29.007Z,14.70
2024-05-09T07:28:59.019Z,19.37
2024-05-09T07:31:30.426Z,18.10
2024-05-09T07:34:00.773Z,19.00
2024-05-09T07:36:27.999Z,18.57
2024-05-09T07:39:08.818Z,18.97
2024-05-09T07:41:37.232Z,15.60
2024-05-09T07:44:11.775Z,17.47
2024-05-09T07:54:56.828Z,19.40
2024-05-09T07:57:24.224Z,18.30
2024-05-09T07:59:53.991Z,20.07
2024-05-09T08:02:21.617Z,19.90
2024-05-09T08:04:51.629Z,21.00
2024-05-09T08:07:20.048Z,16.23
2024-05-09T08:09:50.066Z,18.30
2024-05-09T08:12:20.062Z,17.50
2024-05-09T08:14:50.015Z,17.77
2024-05-09T08:17:17.198Z,17.20
2024-05-09T08:19:47.885Z,14.93
2024-05-09T08:22:15.405Z,18.67
2024-05-09T08:24:46.803Z,17.40
2024-05-09T08:27:14.058Z,17.90
2024-05-09T08:29:46.870Z,15.67
2024-05-09T08:32:14.127Z,14.20
2024-05-09T08:34:44.168Z,14.10
2024-05-09T08:37:15.778Z,13.23
2024-05-09T08:39:55.929Z,8.57
2024-05-09T08:42:24.150Z,10.60
2024-05-09T08:44:59.587Z,11.77
2024-05-09T08:47:31.841Z,9.73
2024-05-09T08:52:31.535Z,10.60
2024-05-09T08:55:05.786Z,8.80
2024-05-09T08:57:42.667Z,11.03
2024-05-09T09:00:33.376Z,10.57
2024-05-09T09:03:05.867Z,12.30
2024-05-09T09:05:51.288Z,11.00
2024-05-09T09:08:46.108Z,8.97
2024-05-09T09:11:21.558Z,9.20
2024-05-09T09:13:49.190Z,15.00
2024-05-09T09:16:21.974Z,10.50
2024-05-09T09:18:54.232Z,8.47
2024-05-09T09:21:25.727Z,11.33
2024-05-09T09:23:56.624Z,10.33
2024-05-09T09:26:26.431Z,10.00
2024-05-09T09:28:59.610Z,9.73
2024-05-09T09:31:33.171Z,9.03
2024-05-09T09:34:14.809Z,12.10
2024-05-09T09:36:49.793Z,16.33
2024-05-09T09:39:20.453Z,8.63
2024-05-09T09:41:50.949Z,6.60
2024-05-09T09:44:19.757Z,7.70
2024-05-09T09:46:53.370Z,9.93
2024-05-09T09:49:27.191Z,8.03
2024-05-09T09:51:57.821Z,8.60
2024-05-09T09:54:32.801Z,8.43
2024-05-09T09:57:04.566Z,8.60
2024-05-09T09:59:36.070Z,6.30
2024-05-09T10:02:09.347Z,11.03
2024-05-09T10:04:39.300Z,10.43
2024-05-09T10:07:13.446Z,8.63
2024-05-09T10:09:45.624Z,9.93
2024-05-09T10:12:16.697Z,11.33
2024-05-09T10:14:57.080Z,10.37
2024-05-09T10:17:29.572Z,10.43
2024-05-09T10:20:14.793Z,11.00
2024-05-09T10:22:54.946Z,9.10
2024-05-09T10:25:23.748Z,8.33
2024-05-09T10:28:16.149Z,6.50
2024-05-09T10:30:44.479Z,7.17
2024-05-09T10:33:24.505Z,6.80
2024-05-09T10:35:51.875Z,8.57
2024-05-09T10:38:22.115Z,8.60
2024-05-09T10:40:56.439Z,8.10
2024-05-09T10:43:26.514Z,13.80
2024-05-09T10:45:53.727Z,10.23
2024-05-09T10:48:26.219Z,10.77
2024-05-09T10:50:53.464Z,6.00
2024-05-09T10:53:23.182Z,9.43
2024-05-09T10:58:50.092Z,10.10
2024-05-09T11:01:20.496Z,6.70
2024-05-09T11:03:53.638Z,6.97
2024-05-09T11:06:21.054Z,8.00
2024-05-09T11:09:01.334Z,10.00
2024-05-09T11:11:37.026Z,8.30
2024-05-09T11:20:08.120Z,7.80
2024-05-09T11:22:40.634Z,7.90
2024-05-09T11:25:12.193Z,7.70
2024-05-09T11:27:54.024Z,11.07
2024-05-09T11:30:27.008Z,8.63
2024-05-09T11:33:13.454Z,6.80
2024-05-09T11:35:54.463Z,7.57
2024-05-09T11:38:27.161Z,10.53
2024-05-09T11:40:57.234Z,7.90
2024-05-09T11:43:37.329Z,9.23
2024-05-09T11:46:13.217Z,9.37
2024-05-09T11:48:43.793Z,7.43
2024-05-09T11:51:29.589Z,12.97
2024-05-09T11:54:04.902Z,6.27
2024-05-09T11:56:36.787Z,9.07
2024-05-09T11:59:14.096Z,10.57
2024-05-09T12:01:41.559Z,7.67
2024-05-09T12:04:14.632Z,6.60
2024-05-09T12:07:12.986Z,7.53
2024-05-09T12:09:51.373Z,9.53
2024-05-09T12:12:19.800Z,5.43
2024-05-09T12:14:49.649Z,8.30
2024-05-09T12:21:18.090Z,6.73
2024-05-09T12:47:09.901Z,6.40
2024-05-09T12:52:54.918Z,7.90
2024-05-09T12:56:02.366Z,6.47
2024-05-09T12:58:56.186Z,9.23
2024-05-09T13:02:06.796Z,6.97
2024-05-09T13:05:26.802Z,6.70
2024-05-09T13:08:30.332Z,7.40
2024-05-09T13:11:08.970Z,7.67
2024-05-09T13:19:03.595Z,9.37
2024-05-09T13:21:05.527Z,6.70
2024-05-09T13:24:37.253Z,10.43
2024-05-09T13:27:37.045Z,6.70
2024-05-09T13:31:03.322Z,8.47
2024-05-09T13:33:36.584Z,7.80
2024-05-09T13:36:28.711Z,7.33
2024-05-09T13:39:22.304Z,8.10
2024-05-09T13:42:03.676Z,7.97
2024-05-09T13:44:52.248Z,6.90
2024-05-09T13:51:20.794Z,7.77
2024-05-09T13:53:53.421Z,7.30
2024-05-09T13:56:29.303Z,6.97
2024-05-09T13:59:02.700Z,5.50
2024-05-09T14:01:55.261Z,8.97
2024-05-09T14:08:35.170Z,8.50
2024-05-09T14:11:45.256Z,8.60
2024-05-09T14:15:22.210Z,10.57
2024-05-09T14:20:35.085Z,6.00
2024-05-09T14:23:07.092Z,4.97
2024-05-09T14:25:58.411Z,7.33
2024-05-09T14:28:40.263Z,4.53
2024-05-09T14:31:29.094Z,9.40
2024-05-09T14:34:13.053Z,8.90
2024-05-09T14:36:47.287Z,4.83
2024-05-09T14:39:24.317Z,7.00
2024-05-09T14:42:10.789Z,6.30
2024-05-09T14:44:46.205Z,5.53
2024-05-09T14:47:23.908Z,5.90
2024-05-09T14:50:51.715Z,4.20
2024-05-09T14:53:58.281Z,3.60
2024-05-09T14:56:31.537Z,5.83
2024-05-09T14:59:08.609Z,5.07
2024-05-09T15:01:41.046Z,5.40
2024-05-09T15:04:08.315Z,6.67
2024-05-09T15:06:40.940Z,5.63
2024-05-09T15:09:08.226Z,3.63
2024-05-09T15:11:38.126Z,5.63
2024-05-09T15:14:05.294Z,5.07
2024-05-09T15:16:35.195Z,5.60
2024-05-09T15:19:05.220Z,5.13
2024-05-09T15:21:35.046Z,4.10
2024-05-09T15:24:02.148Z,4.53
2024-05-09T15:26:31.926Z,5.00
2024-05-09T15:28:59.348Z,3.90
2024-05-09T15:31:29.259Z,4.83
2024-05-09T15:33:56.554Z,4.73
2024-05-09T15:36:29.191Z,4.87
2024-05-09T15:38:56.436Z,4.67
2024-05-09T15:41:26.124Z,4.10
2024-05-09T15:43:53.226Z,5.67
2024-05-09T15:46:23.066Z,6.37
2024-05-09T15:48:50.484Z,3.63
2024-05-09T15:51:20.270Z,5.73
2024-05-09T15:53:50.044Z,5.50
2024-05-09T15:56:20.026Z,5.27
2024-05-09T15:58:47.173Z,9.00
2024-05-09T16:01:17.240Z,5.83
2024-05-09T16:03:44.637Z,5.13
2024-05-09T16:06:14.842Z,3.30
2024-05-09T16:08:42.634Z,3.50
2024-05-09T16:11:17.067Z,4.20
2024-05-09T16:13:44.361Z,4.93
2024-05-09T16:16:14.644Z,6.73
2024-05-09T16:18:45.144Z,5.03
2024-05-09T16:21:14.895Z,4.47
2024-05-09T16:23:44.627Z,4.53
2024-05-09T16:26:17.047Z,4.23
2024-05-09T16:28:44.195Z,6.37
2024-05-09T16:31:14.031Z,4.40
2024-05-09T16:33:42.464Z,6.70
2024-05-09T16:36:12.354Z,9.07
2024-05-09T16:38:41.965Z,7.40
2024-05-09T16:41:13.299Z,3.60
2024-05-09T16:43:43.051Z,4.20
2024-05-09T16:46:13.070Z,4.53
2024-05-09T16:48:43.016Z,5.87
2024-05-09T16:51:12.780Z,5.27
2024-05-09T16:53:39.890Z,4.43
2024-05-09T16:56:10.317Z,4.20
2024-05-09T16:58:40.835Z,3.50
2024-05-09T17:01:13.542Z,4.10
2024-05-09T17:06:35.034Z,4.93
2024-05-09T17:09:11.298Z,5.87
2024-05-09T17:11:41.835Z,5.70
2024-05-09T17:14:11.641Z,5.57
2024-05-09T17:16:44.277Z,10.00
2024-05-09T17:19:11.718Z,5.40
2024-05-09T17:21:41.505Z,7.03
2024-05-09T17:24:08.619Z,5.73
2024-05-09T17:26:39.240Z,3.23
2024-05-09T17:29:07.955Z,5.03
2024-05-09T17:31:39.795Z,8.53
2024-05-09T17:34:09.777Z,4.87
2024-05-09T17:36:39.763Z,6.47
2024-05-09T17:39:07.015Z,4.23
2024-05-09T17:41:36.715Z,4.53
2024-05-09T17:44:04.065Z,6.20
2024-05-09T17:46:33.852Z,5.87
2024-05-09T17:49:01.477Z,4.87
2024-05-09T17:51:35.918Z,5.70
2024-05-09T17:54:03.106Z,5.43
2024-05-09T17:56:32.893Z,4.10
2024-05-09T17:59:00.057Z,4.47
2024-05-09T18:01:29.930Z,4.13
2024-05-09T18:03:57.511Z,4.23
2024-05-09T18:06:27.417Z,4.90
2024-05-09T18:08:57.231Z,5.90
2024-05-09T18:11:28.110Z,5.10
2024-05-09T18:13:55.338Z,6.20
2024-05-09T18:16:25.219Z,5.10
2024-05-09T18:18:52.714Z,5.07
2024-05-09T18:21:25.512Z,5.30
2024-05-09T18:23:54.425Z,4.77
2024-05-09T18:26:27.886Z,5.60
2024-05-09T18:28:55.193Z,5.37
2024-05-09T18:31:25.102Z,4.97
2024-05-09T18:33:52.593Z,4.50
2024-05-09T18:36:22.683Z,4.77
2024-05-09T18:38:49.870Z,6.40
2024-05-09T18:41:20.588Z,3.60
2024-05-09T18:43:51.049Z,5.30
2024-05-09T18:46:21.115Z,5.20
2024-05-09T18:48:48.508Z,3.80
2024-05-09T18:51:18.510Z,5.73
2024-05-09T18:53:46.182Z,5.70
2024-05-09T18:56:15.972Z,3.83
2024-05-09T18:58:45.673Z,4.37
2024-05-09T19:01:15.455Z,6.57
2024-05-09T19:03:55.136Z,4.73
2024-05-09T19:06:24.669Z,6.20
2024-05-09T19:08:54.668Z,7.43
2024-05-09T19:11:21.849Z,7.43
2024-05-09T19:13:52.824Z,6.63
2024-05-09T19:16:22.734Z,5.63
2024-05-09T19:18:53.851Z,4.83
2024-05-09T19:21:21.052Z,6.57
2024-05-09T19:23:52.419Z,5.17
2024-05-09T19:26:19.921Z,6.00
2024-05-09T19:28:49.648Z,4.63
2024-05-09T19:31:16.814Z,8.03
2024-05-09T19:33:49.246Z,5.87
2024-05-09T19:36:19.326Z,4.33
2024-05-09T19:38:51.367Z,5.67
2024-05-09T19:41:18.504Z,8.50
2024-05-09T19:43:48.228Z,5.53
2024-05-09T19:46:16.027Z,3.87
2024-05-09T19:48:48.728Z,5.97
2024-05-09T19:51:16.105Z,4.37
2024-05-09T19:53:45.870Z,5.10
2024-05-09T19:56:13.105Z,6.33
2024-05-09T19:58:42.798Z,5.77
2024-05-09T20:01:10.104Z,5.37
2024-05-09T20:03:40.027Z,6.80
2024-05-09T20:06:10.491Z,7.83
2024-05-09T20:08:41.968Z,18.23
2024-05-09T20:11:09.094Z,10.20
2024-05-09T20:13:39.725Z,6.57
2024-05-09T20:16:08.132Z,9.13
2024-05-09T20:18:38.113Z,9.13
2024-05-09T20:21:06.485Z,7.80
2024-05-09T20:23:39.217Z,5.57
2024-05-09T20:26:07.566Z,7.40
2024-05-09T20:28:37.347Z,6.27
2024-05-09T20:31:05.281Z,12.60
2024-05-09T20:33:35.108Z,14.57
2024-05-09T20:36:02.737Z,27.73
2024-05-09T20:38:32.534Z,12.03
2024-05-09T20:41:02.400Z,8.17
2024-05-09T20:43:32.188Z,6.20
2024-05-09T20:45:59.358Z,6.20
2024-05-09T20:48:29.259Z,5.97
2024-05-09T20:50:56.441Z,6.90
2024-05-09T20:53:26.200Z,8.50
2024-05-09T20:55:53.507Z,6.70
2024-05-09T20:58:26.023Z,8.30
2024-05-09T21:00:53.557Z,8.87
2024-05-09T21:03:23.452Z,8.13
2024-05-09T21:05:50.714Z,8.13
2024-05-09T21:08:20.459Z,8.10
2024-05-09T21:10:48.673Z,11.43
2024-05-09T21:13:18.557Z,9.60
2024-05-09T21:15:48.394Z,7.83
2024-05-09T21:18:18.220Z,8.07
2024-05-09T21:20:45.414Z,13.43
2024-05-09T21:23:15.183Z,9.60
2024-05-09T21:25:42.304Z,9.47
2024-05-09T21:28:12.074Z,9.43
2024-05-09T21:30:42.451Z,11.60
2024-05-09T21:33:16.407Z,8.87
2024-05-09T21:35:44.640Z,11.70
2024-05-09T21:38:16.007Z,9.70
2024-05-09T21:40:43.696Z,10.33
2024-05-09T21:43:14.289Z,11.07
2024-05-09T21:45:41.782Z,10.10
2024-05-09T21:48:11.702Z,12.93
2024-05-09T21:50:42.585Z,17.90
2024-05-09T21:53:13.522Z,12.70
2024-05-09T21:55:41.513Z,8.03
2024-05-09T21:58:12.314Z,7.70
2024-05-09T22:00:40.849Z,11.70
2024-05-09T22:03:12.313Z,11.20
2024-05-09T22:05:44.417Z,10.90
2024-05-09T22:08:14.666Z,11.67
2024-05-09T22:10:42.046Z,12.27
2024-05-09T22:13:15.133Z,13.10
2024-05-09T22:15:42.610Z,15.63
2024-05-09T22:18:12.746Z,11.40
2024-05-09T22:20:45.402Z,10.67
2024-05-09T22:23:16.727Z,13.40
2024-05-09T22:25:43.951Z,13.00
2024-05-09T22:28:16.400Z,12.03
2024-05-09T22:30:45.760Z,14.80
2024-05-09T22:33:16.048Z,11.40
2024-05-09T22:35:45.984Z,12.20
2024-05-09T22:38:15.761Z,9.57
2024-05-09T22:40:48.148Z,14.43
2024-05-09T22:43:23.151Z,11.53
2024-05-09T22:45:52.864Z,15.53
2024-05-09T22:48:23.676Z,14.60
2024-05-09T22:50:54.531Z,15.30
2024-05-09T22:53:25.751Z,16.80
2024-05-09T22:55:53.094Z,9.70
2024-05-09T22:58:23.575Z,14.73
2024-05-09T23:00:51.272Z,11.47
2024-05-09T23:03:22.652Z,15.17
2024-05-09T23:05:50.155Z,14.10
2024-05-09T23:08:22.496Z,14.37
2024-05-09T23:10:49.732Z,15.47
2024-05-09T23:13:20.211Z,12.00
2024-05-09T23:15:50.114Z,9.87
2024-05-09T23:18:20.050Z,15.00
2024-05-09T23:20:47.339Z,11.07
2024-05-09T23:23:17.374Z,11.00
2024-05-09T23:25:47.070Z,15.43
2024-05-09T23:28:16.937Z,14.03
2024-05-09T23:30:44.284Z,9.47
2024-05-09T23:33:15.070Z,14.87
2024-05-09T23:35:43.993Z,13.40
2024-05-09T23:38:14.171Z,14.33
2024-05-09T23:40:42.418Z,14.63
2024-05-09T23:43:16.490Z,11.90
2024-05-09T23:45:43.884Z,13.50
2024-05-09T23:48:14.158Z,13.93
2024-05-09T23:50:41.863Z,16.00
2024-05-09T23:53:11.825Z,13.17
2024-05-09T23:55:39.353Z,12.80
2024-05-09T23:58:11.340Z,10.90
